Time;durP1;ratioP1;P1;durP2;ratioP2;P2;SDS_P1;SDS_P2;PMS_P1;PMS_P2;Temp;Humidity;BMP_temperature;BMP_pressure;BME280_temperature;BME280_humidity;BME280_pressure;Samples;Min_cycle;Max_cycle;Signal;HPM_P1;HPM_P2
2021/04/18 00:02:23;;;;;;;2.13;1.38;;;17.20;49.60;;;;;;5057231;28;20205;-65
2021/04/18 00:04:49;;;;;;;1.85;1.38;;;17.10;49.60;;;;;;5092541;28;20166;-71
2021/04/18 00:07:14;;;;;;;1.63;1.20;;;17.10;49.50;;;;;;5092742;28;20173;-69
2021/04/18 00:09:40;;;;;;;1.65;1.30;;;17.10;49.50;;;;;;5056989;28;20170;-71
2021/04/18 00:12:06;;;;;;;1.50;1.38;;;17.10;49.60;;;;;;5092554;28;20178;-69
2021/04/18 00:14:32;;;;;;;1.55;1.20;;;17.10;49.50;;;;;;5074219;28;20219;-72
2021/04/18 00:16:58;;;;;;;1.40;1.02;;;17.10;49.60;;;;;;5057098;28;20205;-72
2021/04/18 00:19:23;;;;;;;2.55;1.40;;;17.10;50.20;;;;;;5092143;28;20217;-72
2021/04/18 00:21:49;;;;;;;3.67;1.48;;;17.10;49.50;;;;;;5092289;28;20176;-71
2021/04/18 00:24:15;;;;;;;1.23;1.13;;;17.10;49.50;;;;;;5073989;28;20177;-69
2021/04/18 00:26:40;;;;;;;1.83;1.20;;;17.10;49.60;;;;;;5074205;28;20166;-71
2021/04/18 00:29:06;;;;;;;1.75;1.45;;;17.10;49.50;;;;;;5057732;28;20189;-69
2021/04/18 00:31:31;;;;;;;3.20;1.40;;;17.10;49.60;;;;;;5073616;28;20177;-71
2021/04/18 00:33:58;;;;;;;1.42;1.30;;;17.10;49.60;;;;;;5092254;28;20170;-72
2021/04/18 00:36:23;;;;;;;1.52;1.20;;;17.10;49.60;;;;;;5092079;28;20552;-69
2021/04/18 00:38:49;;;;;;;1.30;1.17;;;17.10;49.60;;;;;;5091596;28;20174;-71
2021/04/18 00:41:14;;;;;;;1.73;1.35;;;17.10;49.60;;;;;;5074270;28;20625;-72
2021/04/18 00:43:41;;;;;;;1.60;1.17;;;17.00;49.60;;;;;;5091262;28;20162;-72
2021/04/18 00:46:08;;;;;;;1.23;1.00;;;17.00;49.60;;;;;;5074400;28;20182;-71
2021/04/18 00:48:35;;;;;;;1.67;1.30;;;17.00;49.60;;;;;;5074146;28;20269;-71
2021/04/18 00:51:01;;;;;;;1.55;1.35;;;17.00;49.60;;;;;;5057233;28;20188;-71
2021/04/18 00:53:26;;;;;;;0.90;0.90;;;17.00;49.60;;;;;;5091982;28;20241;-69
2021/04/18 00:55:52;;;;;;;1.35;1.20;;;17.00;50.20;;;;;;5092004;28;20223;-70
2021/04/18 00:58:17;;;;;;;2.22;1.25;;;17.00;49.60;;;;;;5073609;28;20572;-70
2021/04/18 01:00:43;;;;;;;2.03;1.33;;;17.00;49.60;;;;;;5075489;28;20169;-71
2021/04/18 01:03:09;;;;;;;1.33;1.08;;;17.00;49.60;;;;;;5061200;28;20178;-72
2021/04/18 01:05:34;;;;;;;2.00;1.23;;;17.00;49.60;;;;;;5094847;28;20617;-70
2021/04/18 01:08:00;;;;;;;1.20;1.10;;;17.00;50.20;;;;;;5061019;28;20205;-69
2021/04/18 01:10:26;;;;;;;1.48;1.10;;;17.00;50.30;;;;;;5044054;28;20251;-69
2021/04/18 01:12:51;;;;;;;1.20;1.17;;;17.00;49.60;;;;;;5077149;28;20267;-70
2021/04/18 01:15:17;;;;;;;1.25;1.05;;;17.00;49.60;;;;;;5095728;28;20633;-65
2021/04/18 01:17:43;;;;;;;1.73;1.40;;;17.00;49.70;;;;;;5077282;28;20216;-70
2021/04/18 01:20:12;;;;;;;1.88;1.48;;;16.90;49.60;;;;;;5060056;28;20214;-71
2021/04/18 01:22:37;;;;;;;1.20;1.10;;;16.90;49.60;;;;;;5060826;28;20174;-70
2021/04/18 01:25:04;;;;;;;1.45;1.35;;;16.90;49.60;;;;;;5077315;28;20643;-71
2021/04/18 01:27:30;;;;;;;1.27;1.10;;;16.90;49.60;;;;;;5060111;28;20169;-70
2021/04/18 01:29:55;;;;;;;1.48;1.30;;;16.90;49.60;;;;;;5060401;28;20741;-69
2021/04/18 01:32:22;;;;;;;1.80;1.20;;;16.90;49.60;;;;;;5095091;28;20197;-71
2021/04/18 01:34:49;;;;;;;1.33;1.13;;;16.90;49.60;;;;;;5094526;28;20166;-66
2021/04/18 01:37:16;;;;;;;1.88;1.30;;;16.90;49.60;;;;;;5043966;28;20205;-69
2021/04/18 01:39:42;;;;;;;2.45;1.42;;;16.90;49.60;;;;;;5077278;28;20314;-64
2021/04/18 01:42:07;;;;;;;2.70;1.30;;;16.90;49.60;;;;;;5059802;28;20252;-67
2021/04/18 01:44:33;;;;;;;1.27;1.08;;;16.90;49.60;;;;;;5076785;28;20641;-71
2021/04/18 01:46:59;;;;;;;1.58;1.48;;;16.90;49.60;;;;;;5094471;28;20162;-67
2021/04/18 01:49:25;;;;;;;1.48;1.30;;;16.90;49.60;;;;;;5076769;28;20166;-70
2021/04/18 01:51:50;;;;;;;1.30;1.20;;;16.90;49.60;;;;;;5076847;28;20170;-68
2021/04/18 01:54:16;;;;;;;2.88;1.40;;;16.80;49.60;;;;;;5094220;28;20219;-69
2021/04/18 01:56:41;;;;;;;1.30;1.20;;;16.90;49.70;;;;;;5094512;28;20254;-71
2021/04/18 01:59:07;;;;;;;2.60;1.50;;;16.80;49.60;;;;;;5076868;28;20170;-70
2021/04/18 02:01:34;;;;;;;1.67;1.20;;;16.80;49.60;;;;;;5075851;28;20207;-73
2021/04/18 02:04:00;;;;;;;1.77;1.17;;;16.80;50.20;;;;;;5043107;28;20653;-71
2021/04/18 02:06:26;;;;;;;1.58;1.40;;;16.80;49.60;;;;;;5076626;28;20194;-71
2021/04/18 02:08:51;;;;;;;1.58;1.48;;;16.80;49.60;;;;;;5093799;28;20204;-69
2021/04/18 02:11:17;;;;;;;1.38;1.20;;;16.80;49.60;;;;;;5094055;28;20226;-67
2021/04/18 02:13:42;;;;;;;2.47;1.40;;;16.80;49.60;;;;;;5093770;28;20174;-71
2021/04/18 02:16:10;;;;;;;1.50;1.40;;;16.80;49.60;;;;;;5093736;28;20189;-70
2021/04/18 02:18:35;;;;;;;1.80;1.48;;;16.80;49.60;;;;;;5093961;28;20248;-71
2021/04/18 02:21:01;;;;;;;1.83;1.42;;;16.80;49.60;;;;;;5059724;28;20198;-71
2021/04/18 02:23:26;;;;;;;1.45;1.35;;;16.70;49.60;;;;;;5093561;28;20174;-69
2021/04/18 02:25:52;;;;;;;2.33;1.35;;;16.80;49.60;;;;;;5094093;28;20657;-70
2021/04/18 02:28:17;;;;;;;2.13;1.48;;;16.70;49.60;;;;;;5094352;28;20169;-68
2021/04/18 02:30:43;;;;;;;1.20;1.10;;;16.70;49.50;;;;;;5075340;28;20278;-71
2021/04/18 02:33:09;;;;;;;1.70;1.40;;;16.70;49.60;;;;;;5093955;28;20675;-70
2021/04/18 02:35:34;;;;;;;1.85;1.65;;;16.70;49.60;;;;;;5059149;28;20178;-69
2021/04/18 02:38:00;;;;;;;2.53;1.67;;;16.70;49.60;;;;;;5075120;28;20623;-68
2021/04/18 02:40:25;;;;;;;2.03;1.35;;;16.70;49.50;;;;;;5059040;28;20203;-71
2021/04/18 02:42:51;;;;;;;1.63;1.15;;;16.70;49.60;;;;;;5075868;28;20174;-73
2021/04/18 02:45:17;;;;;;;2.33;1.70;;;16.70;49.60;;;;;;5075291;28;20245;-69
2021/04/18 02:47:42;;;;;;;2.28;1.52;;;16.70;49.60;;;;;;5093715;28;20188;-71
2021/04/18 02:50:08;;;;;;;1.45;1.30;;;16.70;50.30;;;;;;5093684;28;20181;-65
2021/04/18 02:52:34;;;;;;;2.05;1.40;;;16.70;49.60;;;;;;5075386;28;20256;-71
2021/04/18 02:55:00;;;;;;;1.40;1.30;;;16.60;49.60;;;;;;5093565;28;20592;-68
2021/04/18 02:57:26;;;;;;;1.70;1.38;;;16.70;49.60;;;;;;5058148;28;21511;-70
2021/04/18 02:59:51;;;;;;;1.60;1.50;;;16.70;49.60;;;;;;5059075;28;20245;-70
2021/04/18 03:02:18;;;;;;;2.13;1.60;;;16.60;49.60;;;;;;5059132;28;20170;-70
2021/04/18 03:04:44;;;;;;;2.08;1.50;;;16.60;49.60;;;;;;5074765;28;20182;-72
2021/04/18 03:07:09;;;;;;;1.73;1.52;;;16.60;49.60;;;;;;5093487;28;20174;-69
2021/04/18 03:09:35;;;;;;;1.70;1.50;;;16.60;49.60;;;;;;5093179;28;20602;-68
2021/04/18 03:12:00;;;;;;;2.00;1.60;;;16.60;49.60;;;;;;5092766;28;20174;-68
2021/04/18 03:14:26;;;;;;;1.98;1.50;;;16.60;49.60;;;;;;5074910;28;20176;-70
2021/04/18 03:16:52;;;;;;;1.83;1.60;;;16.60;49.60;;;;;;5058725;28;20225;-71
2021/04/18 03:19:17;;;;;;;1.40;1.30;;;16.60;49.60;;;;;;5057798;28;20243;-68
2021/04/18 03:21:43;;;;;;;2.00;1.17;;;16.60;49.60;;;;;;5075214;28;20166;-70
2021/04/18 03:24:09;;;;;;;2.22;1.50;;;16.60;49.60;;;;;;5092873;28;20176;-68
2021/04/18 03:26:34;;;;;;;2.33;1.40;;;16.60;49.60;;;;;;5074378;28;20637;-70
2021/04/18 03:29:00;;;;;;;1.73;1.63;;;16.60;49.60;;;;;;5041625;28;20189;-68
2021/04/18 03:31:25;;;;;;;1.58;1.38;;;16.60;49.60;;;;;;5092934;28;20520;-70
2021/04/18 03:33:51;;;;;;;1.48;1.38;;;16.60;49.60;;;;;;5092284;28;20162;-66
2021/04/18 03:36:17;;;;;;;2.17;1.85;;;16.50;49.60;;;;;;5093301;28;20684;-68
2021/04/18 03:38:42;;;;;;;1.77;1.65;;;16.50;49.60;;;;;;5075039;28;20226;-70
2021/04/18 03:41:08;;;;;;;2.50;1.63;;;16.50;49.60;;;;;;5092186;28;20170;-70
2021/04/18 03:43:34;;;;;;;1.77;1.40;;;16.50;50.20;;;;;;5057824;28;20196;-71
2021/04/18 03:45:59;;;;;;;1.80;1.65;;;16.50;49.60;;;;;;5074765;28;20169;-71
2021/04/18 03:48:25;;;;;;;2.25;1.63;;;16.50;49.60;;;;;;5074081;28;20170;-70
2021/04/18 03:50:51;;;;;;;1.73;1.63;;;16.50;49.60;;;;;;5093034;28;20227;-69
2021/04/18 03:53:16;;;;;;;2.15;1.63;;;16.50;49.60;;;;;;5093047;28;20170;-65
2021/04/18 03:55:42;;;;;;;1.88;1.77;;;16.50;49.60;;;;;;5091899;28;20648;-71
2021/04/18 03:58:08;;;;;;;1.67;1.50;;;16.50;50.30;;;;;;5092758;28;20237;-71
2021/04/18 04:00:33;;;;;;;2.58;1.90;;;16.40;49.50;;;;;;5073869;28;20177;-71
2021/04/18 04:02:59;;;;;;;1.60;1.50;;;16.50;49.60;;;;;;5074687;28;20170;-71
2021/04/18 04:05:25;;;;;;;1.90;1.67;;;16.40;49.60;;;;;;5074388;28;20531;-70
2021/04/18 04:07:50;;;;;;;1.30;1.20;;;16.50;49.60;;;;;;5073865;28;20217;-70
2021/04/18 04:10:16;;;;;;;3.05;1.50;;;16.40;49.50;;;;;;5074893;28;20706;-67
2021/04/18 04:12:41;;;;;;;1.67;1.58;;;16.40;49.60;;;;;;5057697;28;20253;-65
2021/04/18 04:15:07;;;;;;;1.70;1.60;;;16.40;49.50;;;;;;5091968;28;20181;-70
2021/04/18 04:17:33;;;;;;;1.95;1.77;;;16.40;49.50;;;;;;5057624;28;20214;-69
2021/04/18 04:19:58;;;;;;;2.03;1.70;;;16.40;49.50;;;;;;5057584;28;20214;-71
2021/04/18 04:22:24;;;;;;;2.05;1.80;;;16.40;49.50;;;;;;5091604;28;20170;-68
2021/04/18 04:24:51;;;;;;;1.65;1.50;;;16.40;49.50;;;;;;5074509;28;20652;-71
2021/04/18 04:27:16;;;;;;;2.42;1.73;;;16.40;49.60;;;;;;5092628;28;20188;-68
2021/04/18 04:29:42;;;;;;;1.90;1.70;;;16.40;49.60;;;;;;5091727;28;20174;-69
2021/04/18 04:32:08;;;;;;;2.00;1.80;;;16.40;49.50;;;;;;5074262;28;20316;-70
2021/04/18 04:34:33;;;;;;;1.75;1.65;;;16.40;49.50;;;;;;5074090;28;20299;-69
2021/04/18 04:36:59;;;;;;;2.10;1.63;;;16.40;49.50;;;;;;5077618;28;20201;-69
2021/04/18 04:39:24;;;;;;;1.77;1.67;;;16.40;49.50;;;;;;5096157;28;20279;-70
2021/04/18 04:41:50;;;;;;;2.17;1.65;;;16.40;49.60;;;;;;5078398;28;20580;-70
2021/04/18 04:44:16;;;;;;;1.92;1.77;;;16.40;49.60;;;;;;5077510;28;20227;-70
2021/04/18 04:46:43;;;;;;;1.83;1.60;;;16.40;49.60;;;;;;5095908;28;20236;-70
2021/04/18 04:49:09;;;;;;;1.88;1.67;;;16.30;49.50;;;;;;5078041;28;20215;-67
2021/04/18 04:51:34;;;;;;;1.80;1.70;;;16.30;49.50;;;;;;5060539;28;20166;-68
2021/04/18 04:54:00;;;;;;;1.80;1.50;;;16.30;49.50;;;;;;5095963;28;20652;-68
2021/04/18 04:56:25;;;;;;;1.88;1.50;;;16.40;49.50;;;;;;5095739;28;20336;-71
2021/04/18 04:58:51;;;;;;;1.83;1.60;;;16.30;49.50;;;;;;5077444;28;20173;-72
2021/04/18 05:01:17;;;;;;;2.05;1.85;;;16.30;49.50;;;;;;5096198;28;20686;-70
2021/04/18 05:03:42;;;;;;;1.45;1.35;;;16.30;49.50;;;;;;5077602;28;20217;-69
2021/04/18 05:06:08;;;;;;;2.30;1.65;;;16.30;49.50;;;;;;5077118;28;20170;-70
2021/04/18 05:08:33;;;;;;;1.67;1.50;;;16.30;49.50;;;;;;5077331;28;20177;-69
2021/04/18 05:10:59;;;;;;;1.75;1.63;;;16.30;49.40;;;;;;5095143;28;20629;-69
2021/04/18 05:13:25;;;;;;;1.65;1.50;;;16.30;49.30;;;;;;5095525;28;20177;-69
2021/04/18 05:15:50;;;;;;;1.40;1.30;;;16.40;49.20;;;;;;5095343;28;20533;-70
2021/04/18 05:18:16;;;;;;;1.45;1.35;;;16.70;49.50;;;;;;5095179;28;20228;-69
2021/04/18 05:20:41;;;;;;;2.22;1.40;;;16.90;49.00;;;;;;5060401;28;20225;-71
2021/04/18 05:23:07;;;;;;;1.63;1.50;;;17.20;48.70;;;;;;5077522;28;20173;-70
2021/04/18 05:25:32;;;;;;;1.50;1.40;;;17.50;48.30;;;;;;5076600;28;20192;-70
2021/04/18 05:27:58;;;;;;;1.30;1.20;;;17.80;47.80;;;;;;5077311;28;20257;-70
2021/04/18 05:30:24;;;;;;;1.90;1.65;;;18.20;47.00;;;;;;5076986;28;20181;-66
2021/04/18 05:32:50;;;;;;;2.40;1.75;;;18.50;46.60;;;;;;5094642;28;20181;-69
2021/04/18 05:35:15;;;;;;;2.35;1.35;;;18.60;46.20;;;;;;5095242;28;20158;-69
2021/04/18 05:37:41;;;;;;;1.40;1.30;;;18.80;46.60;;;;;;5076754;28;20263;-69
2021/04/18 05:40:07;;;;;;;1.48;1.30;;;18.80;45.80;;;;;;5094322;28;20634;-69
2021/04/18 05:42:33;;;;;;;1.30;1.20;;;18.80;45.90;;;;;;5076949;28;20210;-65
2021/04/18 05:44:58;;;;;;;1.85;1.30;;;18.80;46.00;;;;;;5060256;28;20174;-69
2021/04/18 05:47:24;;;;;;;1.70;1.30;;;18.80;46.10;;;;;;5093926;28;20170;-71
2021/04/18 05:49:50;;;;;;;1.25;1.15;;;18.80;46.10;;;;;;5094908;28;20222;-69
2021/04/18 05:52:15;;;;;;;1.30;1.20;;;18.80;46.10;;;;;;5094949;28;20630;-64
2021/04/18 05:54:41;;;;;;;1.55;1.27;;;18.80;46.00;;;;;;5059231;28;20178;-62
2021/04/18 05:57:07;;;;;;;1.95;1.25;;;18.80;46.10;;;;;;5094891;28;20209;-66
2021/04/18 05:59:33;;;;;;;1.27;0.90;;;18.80;46.20;;;;;;5076656;28;20651;-70
2021/04/18 06:01:58;;;;;;;1.30;1.20;;;18.80;46.10;;;;;;5094120;28;20170;-64
2021/04/18 06:04:24;;;;;;;2.00;1.60;;;18.80;46.30;;;;;;5076486;28;20532;-68
2021/04/18 06:06:49;;;;;;;1.63;1.30;;;18.60;46.40;;;;;;5094498;28;20174;-65
2021/04/18 06:09:15;;;;;;;2.17;1.27;;;18.60;46.60;;;;;;5076202;28;20174;-68
2021/04/18 06:11:41;;;;;;;0.98;0.90;;;18.50;46.80;;;;;;5076313;28;20629;-69
2021/04/18 06:14:07;;;;;;;1.50;1.05;;;18.40;46.90;;;;;;5076333;28;20176;-64
2021/04/18 06:16:33;;;;;;;1.40;1.20;;;18.40;47.00;;;;;;5094045;28;20198;-70
2021/04/18 06:18:58;;;;;;;1.70;1.35;;;18.40;47.00;;;;;;5072617;28;20301;-67
2021/04/18 06:21:24;;;;;;;1.85;1.33;;;18.40;46.90;;;;;;5072269;28;20166;-62
2021/04/18 06:23:50;;;;;;;1.35;1.25;;;18.40;47.20;;;;;;5073820;28;20199;-67
2021/04/18 06:26:16;;;;;;;1.73;1.60;;;18.40;47.60;;;;;;5072920;28;20174;-70
2021/04/18 06:28:41;;;;;;;2.03;1.42;;;18.50;47.80;;;;;;5072860;28;20210;-65
2021/04/18 06:31:07;;;;;;;2.70;1.40;;;18.50;47.90;;;;;;5073630;28;21029;-62
2021/04/18 06:33:32;;;;;;;2.38;1.52;;;18.60;47.80;;;;;;5073513;28;20192;-66
2021/04/18 06:35:58;;;;;;;1.92;1.63;;;18.50;48.50;;;;;;5072144;28;20695;-78
2021/04/18 06:38:24;;;;;;;4.93;1.70;;;18.40;48.10;;;;;;5073229;28;20206;-65
2021/04/18 06:40:53;;;;;;;2.00;1.70;;;18.30;48.40;;;;;;5072686;28;20179;-73
2021/04/18 06:43:20;;;;;;;2.33;1.70;;;18.20;48.50;;;;;;5055461;28;20169;-64
2021/04/18 06:45:48;;;;;;;1.75;1.63;;;18.20;48.90;;;;;;5056206;28;20167;-70
2021/04/18 06:48:13;;;;;;;2.45;1.73;;;18.20;49.00;;;;;;5056127;28;20174;-65
2021/04/18 06:50:39;;;;;;;2.95;1.50;;;18.10;49.10;;;;;;5054995;28;20167;-66
2021/04/18 06:53:04;;;;;;;4.75;1.67;;;18.10;49.90;;;;;;5072305;28;20548;-62
2021/04/18 06:55:30;;;;;;;3.05;1.60;;;18.20;49.20;;;;;;5071851;28;20184;-79
2021/04/18 06:57:56;;;;;;;2.35;1.73;;;18.30;49.20;;;;;;5072082;28;20214;-75
2021/04/18 07:00:22;;;;;;;2.17;1.58;;;18.40;49.00;;;;;;5073045;28;20198;-62
2021/04/18 07:02:50;;;;;;;3.20;1.67;;;18.50;48.80;;;;;;5073359;28;20181;-64
2021/04/18 07:05:16;;;;;;;3.33;1.48;;;18.60;48.80;;;;;;5071435;28;20173;-63
2021/04/18 07:07:43;;;;;;;2.08;1.40;;;18.60;48.70;;;;;;5071627;28;20175;-63
2021/04/18 07:10:13;;;;;;;2.45;1.45;;;18.60;48.60;;;;;;5073119;28;20167;-62
2021/04/18 07:12:38;;;;;;;2.40;1.38;;;18.60;48.70;;;;;;5054911;28;20171;-71
2021/04/18 07:15:05;;;;;;;4.03;1.25;;;18.50;48.90;;;;;;5055181;28;20510;-63
2021/04/18 07:17:30;;;;;;;2.22;1.35;;;18.50;49.10;;;;;;5070593;28;20216;-62
2021/04/18 07:20:12;;;;;;;2.60;1.58;;;18.50;49.20;;;;;;5085703;28;20686;-64
2021/04/18 07:22:38;;;;;;;2.95;1.52;;;18.40;49.20;;;;;;5074791;28;20184;-63
2021/04/18 07:25:04;;;;;;;1.20;1.10;;;18.50;49.20;;;;;;5092463;28;20166;-69
2021/04/18 07:27:49;;;;;;;1.50;1.40;;;18.50;49.10;;;;;;5092913;28;20534;-72
2021/04/18 07:30:19;;;;;;;2.05;1.42;;;18.60;49.10;;;;;;5093033;28;20256;-71
2021/04/18 07:32:45;;;;;;;2.28;1.50;;;18.60;49.00;;;;;;5092101;28;20200;-62
2021/04/18 07:35:34;;;;;;;2.88;1.77;;;18.70;49.10;;;;;;5074932;28;20169;-62
2021/04/18 07:38:25;;;;;;;2.03;1.48;;;18.60;49.10;;;;;;5092799;28;20213;-66
2021/04/18 07:40:55;;;;;;;2.05;1.30;;;18.50;49.40;;;;;;5058873;28;20517;-69
2021/04/18 07:43:21;;;;;;;2.22;1.35;;;18.50;49.40;;;;;;5092711;28;20179;-67
2021/04/18 07:45:49;;;;;;;3.15;1.67;;;18.50;49.70;;;;;;5074448;28;20174;-68
2021/04/18 07:48:16;;;;;;;3.90;1.70;;;18.50;49.70;;;;;;5092782;28;20165;-68
2021/04/18 07:50:43;;;;;;;2.35;1.40;;;18.50;49.40;;;;;;5092629;28;20165;-59
2021/04/18 07:53:10;;;;;;;2.15;1.35;;;18.60;49.40;;;;;;5074146;28;20173;-69
2021/04/18 07:55:36;;;;;;;1.80;1.20;;;18.60;49.30;;;;;;5057894;28;20535;-69
2021/04/18 07:58:02;;;;;;;1.98;1.00;;;18.60;49.50;;;;;;5041204;28;20304;-67
2021/04/18 08:00:27;;;;;;;1.45;1.08;;;18.60;49.60;;;;;;5091707;28;20535;-71
2021/04/18 08:02:53;;;;;;;1.63;1.50;;;18.60;49.50;;;;;;5092648;28;20184;-68
2021/04/18 08:05:20;;;;;;;2.13;1.20;;;18.60;49.70;;;;;;5092429;28;20690;-65
2021/04/18 08:08:00;;;;;;;2.25;1.65;;;18.50;49.80;;;;;;5057741;28;20169;-69
2021/04/18 08:10:42;;;;;;;2.95;1.30;;;18.50;49.60;;;;;;5093347;28;20165;-63
2021/04/18 08:13:18;;;;;;;3.25;1.65;;;18.50;49.70;;;;;;5096652;28;20750;-66
2021/04/18 08:15:53;;;;;;;2.50;1.40;;;18.40;49.80;;;;;;5096123;28;20169;-62
2021/04/18 08:18:25;;;;;;;2.13;1.17;;;18.30;49.80;;;;;;5096410;28;20208;-64
2021/04/18 08:20:51;;;;;;;2.20;1.25;;;18.30;49.80;;;;;;5061541;28;20217;-66
2021/04/18 08:23:17;;;;;;;2.00;1.27;;;18.30;49.90;;;;;;5061793;28;20177;-63
2021/04/18 08:26:09;;;;;;;1.75;1.48;;;18.20;50.00;;;;;;5044919;28;20202;-62
2021/04/18 08:28:55;;;;;;;2.05;1.40;;;18.20;50.00;;;;;;5057639;28;20168;-70
2021/04/18 08:31:21;;;;;;;3.92;1.30;;;18.20;50.10;;;;;;5047495;28;20179;-67
2021/04/18 08:33:48;;;;;;;1.95;1.25;;;18.20;50.10;;;;;;5076165;28;20170;-69
2021/04/18 08:36:24;;;;;;;1.25;1.02;;;18.20;50.10;;;;;;5057797;28;20174;-68
2021/04/18 08:38:59;;;;;;;4.85;1.88;;;18.10;50.30;;;;;;5076161;28;20181;-65
2021/04/18 08:41:40;;;;;;;1.52;1.35;;;18.00;50.30;;;;;;5059181;28;20171;-68
2021/04/18 08:44:15;;;;;;;1.38;1.27;;;18.00;50.40;;;;;;5051412;28;20265;-68
2021/04/18 08:46:41;;;;;;;3.20;1.50;;;18.00;50.50;;;;;;5095866;28;20624;-69
2021/04/18 08:49:07;;;;;;;1.80;1.30;;;17.90;50.50;;;;;;5060816;28;20173;-63
2021/04/18 08:51:32;;;;;;;1.52;1.42;;;18.00;50.60;;;;;;5077816;28;20528;-63
2021/04/18 08:53:59;;;;;;;2.33;1.40;;;17.90;50.60;;;;;;5096209;28;20166;-63
2021/04/18 08:56:48;;;;;;;2.72;1.27;;;17.90;50.60;;;;;;5077182;28;20630;-71
2021/04/18 08:59:14;;;;;;;1.80;1.45;;;18.00;50.60;;;;;;5061048;28;20200;-64
2021/04/18 09:02:03;;;;;;;1.60;1.50;;;18.00;50.40;;;;;;5060943;28;20162;-66
2021/04/18 09:04:29;;;;;;;1.92;1.55;;;18.00;50.40;;;;;;5077068;28;20170;-64
2021/04/18 09:06:55;;;;;;;2.92;1.63;;;18.10;50.60;;;;;;5061092;28;20569;-70
2021/04/18 09:09:21;;;;;;;1.83;1.42;;;18.00;50.50;;;;;;5060821;28;20227;-68
2021/04/18 09:11:47;;;;;;;2.25;1.52;;;18.10;50.60;;;;;;5077120;28;20178;-68
2021/04/18 09:14:53;;;;;;;2.00;1.58;;;18.10;50.50;;;;;;5077632;28;20166;-63
2021/04/18 09:17:21;;;;;;;2.42;1.20;;;18.20;50.50;;;;;;5089597;28;20971;-63
2021/04/18 09:19:59;;;;;;;2.13;1.08;;;18.20;50.40;;;;;;5077628;28;20572;-63
2021/04/18 09:22:45;;;;;;;3.47;1.58;;;18.10;50.40;;;;;;5094811;28;20652;-69
2021/04/18 09:25:14;;;;;;;2.05;1.23;;;18.20;50.50;;;;;;5094289;28;20181;-69
2021/04/18 09:27:41;;;;;;;1.42;1.30;;;18.10;50.50;;;;;;5095199;28;20177;-71
2021/04/18 09:30:11;;;;;;;2.78;1.55;;;18.10;51.20;;;;;;5077275;28;20966;-71
2021/04/18 09:32:41;;;;;;;2.47;1.20;;;18.10;50.50;;;;;;5076449;28;20176;-70
2021/04/18 09:35:08;;;;;;;1.80;1.40;;;18.10;50.60;;;;;;5060931;28;20166;-69
2021/04/18 09:37:35;;;;;;;2.30;1.50;;;18.10;50.50;;;;;;5060376;28;20697;-68
2021/04/18 09:40:09;;;;;;;1.42;1.33;;;18.20;50.50;;;;;;5076478;28;20196;-69
2021/04/18 09:42:38;;;;;;;1.15;1.05;;;18.10;50.50;;;;;;5077555;28;20169;-68
2021/04/18 09:45:07;;;;;;;2.05;1.60;;;18.20;51.10;;;;;;5076998;28;20173;-72
2021/04/18 09:47:33;;;;;;;3.00;1.65;;;18.30;50.40;;;;;;5094604;28;20175;-67
2021/04/18 09:50:00;;;;;;;2.78;1.70;;;18.30;50.30;;;;;;5095108;28;20170;-62
2021/04/18 09:52:39;;;;;;;2.30;1.30;;;18.30;50.30;;;;;;5059608;28;20208;-62
2021/04/18 09:55:29;;;;;;;2.13;1.23;;;18.30;50.30;;;;;;5076499;28;20176;-71
2021/04/18 09:57:59;;;;;;;1.65;1.20;;;18.30;50.30;;;;;;5079456;28;20224;-71
2021/04/18 10:00:31;;;;;;;4.53;1.95;;;18.20;50.30;;;;;;5059243;28;20170;-74
2021/04/18 10:03:00;;;;;;;2.75;1.60;;;18.20;50.40;;;;;;5077990;28;20173;-66
2021/04/18 10:05:25;;;;;;;2.05;1.45;;;18.20;50.40;;;;;;5094415;28;20254;-62
2021/04/18 10:07:51;;;;;;;1.30;1.20;;;18.20;50.40;;;;;;5059455;28;20197;-70
2021/04/18 10:10:32;;;;;;;1.80;1.20;;;18.30;50.50;;;;;;5056960;28;20540;-63
2021/04/18 10:13:00;;;;;;;1.50;1.17;;;18.30;50.40;;;;;;5059778;28;20264;-69
2021/04/18 10:15:25;;;;;;;2.15;1.30;;;18.30;50.40;;;;;;5093608;28;20690;-64
2021/04/18 10:17:51;;;;;;;1.80;1.20;;;18.30;50.30;;;;;;5059485;28;20280;-63
2021/04/18 10:20:26;;;;;;;1.58;1.20;;;18.30;50.30;;;;;;5075957;28;20300;-66
2021/04/18 10:23:09;;;;;;;1.67;1.27;;;18.40;50.20;;;;;;5066181;28;20249;-64
2021/04/18 10:25:35;;;;;;;2.05;1.40;;;18.40;50.20;;;;;;5075897;28;20169;-65
2021/04/18 10:28:01;;;;;;;3.13;1.73;;;18.40;50.10;;;;;;5093555;28;20636;-64
2021/04/18 10:30:27;;;;;;;2.67;1.30;;;18.50;50.10;;;;;;5059191;28;20213;-62
2021/04/18 10:32:53;;;;;;;6.65;1.38;;;18.60;50.20;;;;;;5092917;28;20170;-64
2021/04/18 10:35:19;;;;;;;2.00;1.55;;;18.60;50.20;;;;;;5075049;28;20174;-67
2021/04/18 10:37:45;;;;;;;2.08;1.50;;;18.60;50.20;;;;;;5094234;28;20201;-64
2021/04/18 10:40:11;;;;;;;1.58;1.27;;;18.60;50.20;;;;;;5075942;28;20162;-66
2021/04/18 10:42:37;;;;;;;4.75;1.67;;;18.70;50.20;;;;;;5093065;28;20729;-65
2021/04/18 10:45:03;;;;;;;2.75;1.48;;;18.70;50.10;;;;;;5093726;28;20186;-64
2021/04/18 10:47:29;;;;;;;1.60;1.15;;;18.80;50.10;;;;;;5058843;28;20235;-63
2021/04/18 10:49:54;;;;;;;3.53;1.40;;;18.80;50.10;;;;;;5092943;28;20169;-63
2021/04/18 10:52:21;;;;;;;1.33;1.17;;;18.80;50.10;;;;;;5093513;28;20174;-63
2021/04/18 10:54:47;;;;;;;1.50;1.30;;;18.80;50.10;;;;;;5058929;28;20169;-62
2021/04/18 10:57:13;;;;;;;1.55;1.45;;;18.80;50.10;;;;;;5075207;28;20185;-65
2021/04/18 10:59:38;;;;;;;2.45;1.25;;;18.80;50.00;;;;;;5093390;28;20265;-63
2021/04/18 11:02:04;;;;;;;2.38;1.10;;;18.80;50.10;;;;;;5093551;28;20657;-63
2021/04/18 11:04:29;;;;;;;1.45;1.08;;;18.80;50.20;;;;;;5092554;28;20193;-64
2021/04/18 11:06:55;;;;;;;2.72;1.48;;;18.80;50.40;;;;;;5075456;28;20172;-63
2021/04/18 11:09:22;;;;;;;2.42;1.52;;;18.80;50.40;;;;;;5075229;28;20187;-65
2021/04/18 11:11:47;;;;;;;1.33;1.20;;;18.80;50.30;;;;;;5092833;28;20174;-64
2021/04/18 11:14:13;;;;;;;1.20;1.08;;;18.80;50.30;;;;;;5075357;28;20172;-64
2021/04/18 11:16:38;;;;;;;1.25;1.15;;;18.80;50.30;;;;;;5092512;28;20209;-64
2021/04/18 11:19:04;;;;;;;1.50;1.40;;;18.80;50.30;;;;;;5092832;28;20217;-63
2021/04/18 11:21:30;;;;;;;3.22;1.17;;;18.80;50.40;;;;;;5092880;28;20629;-67
2021/04/18 11:23:55;;;;;;;1.35;1.20;;;18.80;50.40;;;;;;5092652;28;20185;-59
2021/04/18 11:26:22;;;;;;;1.55;1.10;;;18.80;50.40;;;;;;5058367;28;20177;-68
2021/04/18 11:28:48;;;;;;;2.03;1.20;;;18.80;50.30;;;;;;5058535;28;20207;-66
2021/04/18 11:31:17;;;;;;;5.55;1.45;;;18.80;50.30;;;;;;5074573;28;20158;-68
2021/04/18 11:33:42;;;;;;;2.72;1.40;;;18.70;51.10;;;;;;5074690;28;20223;-67
2021/04/18 11:36:08;;;;;;;2.42;1.25;;;18.70;50.60;;;;;;5074994;28;20170;-70
2021/04/18 11:38:34;;;;;;;2.90;1.20;;;18.70;50.70;;;;;;5091964;28;20304;-65
2021/04/18 11:40:59;;;;;;;3.78;1.48;;;18.70;50.60;;;;;;5074915;28;20161;-67
2021/04/18 11:43:25;;;;;;;2.15;1.38;;;18.60;50.60;;;;;;5092620;28;20169;-64
2021/04/18 11:45:50;;;;;;;3.28;1.35;;;18.60;50.70;;;;;;5091900;28;20241;-68
2021/04/18 11:48:16;;;;;;;2.38;1.23;;;18.50;50.60;;;;;;5058358;28;20174;-61
2021/04/18 11:50:42;;;;;;;3.58;1.70;;;18.60;50.70;;;;;;5092442;28;20231;-66
2021/04/18 11:53:09;;;;;;;2.65;1.33;;;18.60;50.70;;;;;;5092009;28;20543;-61
2021/04/18 11:55:36;;;;;;;3.17;1.40;;;18.50;50.70;;;;;;5074538;28;20299;-63
2021/04/18 11:58:02;;;;;;;4.30;1.40;;;18.60;51.40;;;;;;5074679;28;20205;-62
2021/04/18 12:00:28;;;;;;;3.40;1.65;;;18.50;50.70;;;;;;5074205;28;20177;-61
2021/04/18 12:02:53;;;;;;;4.28;1.80;;;18.50;50.80;;;;;;5092601;28;20170;-70
2021/04/18 12:05:19;;;;;;;6.20;1.83;;;18.50;51.00;;;;;;5092257;28;20266;-62
2021/04/18 12:07:45;;;;;;;2.80;1.85;;;18.50;51.00;;;;;;5074189;28;20160;-62
2021/04/18 12:10:10;;;;;;;2.85;1.70;;;18.50;50.90;;;;;;5092468;28;20170;-70
2021/04/18 12:12:38;;;;;;;5.03;2.05;;;18.70;50.80;;;;;;5092381;28;20166;-61
2021/04/18 12:15:04;;;;;;;4.90;2.35;;;18.70;50.50;;;;;;5074042;28;20253;-61
2021/04/18 12:17:31;;;;;;;7.55;2.30;;;18.80;50.40;;;;;;5074261;28;20665;-61
2021/04/18 12:19:57;;;;;;;5.13;2.95;;;18.70;50.30;;;;;;5091550;28;20251;-63
2021/04/18 12:22:23;;;;;;;7.80;2.58;;;18.70;50.50;;;;;;5074335;28;20174;-66
2021/04/18 12:24:48;;;;;;;6.47;2.80;;;18.60;50.60;;;;;;5057564;28;20162;-61
2021/04/18 12:27:14;;;;;;;4.40;2.13;;;18.70;50.60;;;;;;5091963;28;20224;-70
2021/04/18 12:29:39;;;;;;;7.22;2.40;;;18.70;50.50;;;;;;5092136;28;20183;-63
2021/04/18 12:32:05;;;;;;;6.60;2.70;;;18.80;50.60;;;;;;5092275;28;20200;-64
2021/04/18 12:34:31;;;;;;;6.13;2.88;;;18.80;50.50;;;;;;5091373;28;20189;-68
2021/04/18 12:36:57;;;;;;;5.75;2.63;;;18.90;50.30;;;;;;5074093;28;20204;-65
2021/04/18 12:39:22;;;;;;;6.93;2.90;;;19.10;50.10;;;;;;5073958;28;20166;-66
2021/04/18 12:41:48;;;;;;;6.45;2.67;;;19.20;50.00;;;;;;5091782;28;20188;-67
2021/04/18 12:44:14;;;;;;;6.60;2.35;;;19.20;50.70;;;;;;5092091;28;20249;-62
2021/04/18 12:46:40;;;;;;;5.40;2.50;;;19.10;50.20;;;;;;5074004;28;20257;-70
2021/04/18 12:49:06;;;;;;;7.10;2.53;;;19.10;50.10;;;;;;5073630;28;20170;-60